sensor_id;sensor_type;location;lat;lon;timestamp;temperature;humidity
25652;DHT22;13508;50.734;4.232;2024-02-21T00:00:22;9.50;99.90
25652;DHT22;13508;50.734;4.232;2024-02-21T00:03:25;9.50;99.90
25652;DHT22;13508;50.734;4.232;2024-02-21T00:06:31;9.50;99.90
25652;DHT22;13508;50.734;4.232;2024-02-21T00:09:34;9.40;99.90
25652;DHT22;13508;50.734;4.232;2024-02-21T00:12:38;9.50;99.90
25652;DHT22;13508;50.734;4.232;2024-02-21T00:15:43;9.60;99.90
25652;DHT22;13508;50.734;4.232;2024-02-21T00:18:46;9.60;99.90
25652;DHT22;13508;50.734;4.232;2024-02-21T00:21:50;9.70;99.90
25652;DHT22;13508;50.734;4.232;2024-02-21T00:24:53;9.70;99.90
25652;DHT22;13508;50.734;4.232;2024-02-21T00:27:59;9.60;99.90
25652;DHT22;13508;50.734;4.232;2024-02-21T00:31:02;9.80;99.90
25652;DHT22;13508;50.734;4.232;2024-02-21T00:34:08;9.60;99.90
25652;DHT22;13508;50.734;4.232;2024-02-21T00:37:16;9.60;99.90
25652;DHT22;13508;50.734;4.232;2024-02-21T00:40:20;9.50;99.90
25652;DHT22;13508;50.734;4.232;2024-02-21T00:43:25;9.60;99.90
25652;DHT22;13508;50.734;4.232;2024-02-21T00:46:28;9.60;99.90
25652;DHT22;13508;50.734;4.232;2024-02-21T00:49:31;9.70;99.90
25652;DHT22;13508;50.734;4.232;2024-02-21T00:52:35;9.60;99.90
25652;DHT22;13508;50.734;4.232;2024-02-21T00:55:38;9.40;99.90
25652;DHT22;13508;50.734;4.232;2024-02-21T00:58:43;9.40;99.90
25652;DHT22;13508;50.734;4.232;2024-02-21T01:01:48;9.50;99.90
25652;DHT22;13508;50.734;4.232;2024-02-21T01:04:57;9.50;99.90
25652;DHT22;13508;50.734;4.232;2024-02-21T01:08:00;9.60;99.90
25652;DHT22;13508;50.734;4.232;2024-02-21T01:11:04;9.40;99.90
25652;DHT22;13508;50.734;4.232;2024-02-21T01:14:07;9.30;99.90
25652;DHT22;13508;50.734;4.232;2024-02-21T01:17:10;9.20;99.90
25652;DHT22;13508;50.734;4.232;2024-02-21T01:20:13;9.00;99.90
25652;DHT22;13508;50.734;4.232;2024-02-21T01:23:19;9.00;99.90
25652;DHT22;13508;50.734;4.232;2024-02-21T01:26:23;8.90;99.90
25652;DHT22;13508;50.734;4.232;2024-02-21T01:29:27;8.80;99.90
25652;DHT22;13508;50.734;4.232;2024-02-21T01:32:30;8.90;99.90
25652;DHT22;13508;50.734;4.232;2024-02-21T01:35:34;9.00;99.90
25652;DHT22;13508;50.734;4.232;2024-02-21T01:38:40;9.10;99.90
25652;DHT22;13508;50.734;4.232;2024-02-21T01:41:43;9.30;99.90
25652;DHT22;13508;50.734;4.232;2024-02-21T01:44:47;9.30;99.90
25652;DHT22;13508;50.734;4.232;2024-02-21T01:47:50;9.30;99.90
25652;DHT22;13508;50.734;4.232;2024-02-21T01:50:54;9.10;99.90
25652;DHT22;13508;50.734;4.232;2024-02-21T01:53:58;9.20;99.90
25652;DHT22;13508;50.734;4.232;2024-02-21T01:57:02;9.20;99.90
25652;DHT22;13508;50.734;4.232;2024-02-21T02:00:09;9.30;99.90
25652;DHT22;13508;50.734;4.232;2024-02-21T02:03:13;9.20;99.90
25652;DHT22;13508;50.734;4.232;2024-02-21T02:06:19;9.10;99.90
25652;DHT22;13508;50.734;4.232;2024-02-21T02:09:23;9.00;99.90
25652;DHT22;13508;50.734;4.232;2024-02-21T02:12:27;9.10;99.90
25652;DHT22;13508;50.734;4.232;2024-02-21T02:15:40;9.10;99.90
25652;DHT22;13508;50.734;4.232;2024-02-21T02:18:44;9.20;99.90
25652;DHT22;13508;50.734;4.232;2024-02-21T02:21:54;9.30;99.90
25652;DHT22;13508;50.734;4.232;2024-02-21T02:24:59;9.20;99.90
25652;DHT22;13508;50.734;4.232;2024-02-21T02:28:06;9.40;99.90
25652;DHT22;13508;50.734;4.232;2024-02-21T02:31:09;9.30;99.90
25652;DHT22;13508;50.734;4.232;2024-02-21T02:34:12;9.10;99.90
25652;DHT22;13508;50.734;4.232;2024-02-21T02:37:16;9.10;99.90
25652;DHT22;13508;50.734;4.232;2024-02-21T02:40:20;9.20;99.90
25652;DHT22;13508;50.734;4.232;2024-02-21T02:43:26;9.10;99.90
25652;DHT22;13508;50.734;4.232;2024-02-21T02:46:29;9.20;99.90
25652;DHT22;13508;50.734;4.232;2024-02-21T02:49:32;9.10;99.90
25652;DHT22;13508;50.734;4.232;2024-02-21T02:52:36;9.10;99.90
25652;DHT22;13508;50.734;4.232;2024-02-21T02:55:42;9.00;99.90
25652;DHT22;13508;50.734;4.232;2024-02-21T02:58:45;9.20;99.90
25652;DHT22;13508;50.734;4.232;2024-02-21T03:01:48;9.20;99.90
25652;DHT22;13508;50.734;4.232;2024-02-21T03:04:52;9.10;99.90
25652;DHT22;13508;50.734;4.232;2024-02-21T03:07:55;9.10;99.90
25652;DHT22;13508;50.734;4.232;2024-02-21T03:10:58;9.10;99.90
25652;DHT22;13508;50.734;4.232;2024-02-21T03:14:02;9.20;99.90
25652;DHT22;13508;50.734;4.232;2024-02-21T03:17:05;9.30;99.90
25652;DHT22;13508;50.734;4.232;2024-02-21T03:20:09;9.30;99.90
25652;DHT22;13508;50.734;4.232;2024-02-21T03:23:13;9.20;99.90
25652;DHT22;13508;50.734;4.232;2024-02-21T03:26:16;9.20;99.90
25652;DHT22;13508;50.734;4.232;2024-02-21T03:29:23;9.40;99.90
25652;DHT22;13508;50.734;4.232;2024-02-21T03:32:26;9.30;99.90
25652;DHT22;13508;50.734;4.232;2024-02-21T03:35:31;9.30;99.90
25652;DHT22;13508;50.734;4.232;2024-02-21T03:38:34;9.30;99.90
25652;DHT22;13508;50.734;4.232;2024-02-21T03:41:37;9.40;99.90
25652;DHT22;13508;50.734;4.232;2024-02-21T03:44:41;9.30;99.90
25652;DHT22;13508;50.734;4.232;2024-02-21T03:47:44;9.40;99.90
25652;DHT22;13508;50.734;4.232;2024-02-21T03:50:47;9.30;99.90
25652;DHT22;13508;50.734;4.232;2024-02-21T03:53:51;9.20;99.90
25652;DHT22;13508;50.734;4.232;2024-02-21T03:56:55;9.20;99.90
25652;DHT22;13508;50.734;4.232;2024-02-21T04:00:01;9.30;99.90
25652;DHT22;13508;50.734;4.232;2024-02-21T04:03:05;9.30;99.90
25652;DHT22;13508;50.734;4.232;2024-02-21T04:06:09;9.30;99.90
25652;DHT22;13508;50.734;4.232;2024-02-21T04:09:13;9.30;99.90
25652;DHT22;13508;50.734;4.232;2024-02-21T04:12:17;9.20;99.90
25652;DHT22;13508;50.734;4.232;2024-02-21T04:15:20;9.20;99.90
25652;DHT22;13508;50.734;4.232;2024-02-21T04:18:23;9.10;99.90
25652;DHT22;13508;50.734;4.232;2024-02-21T04:21:27;9.10;99.90
25652;DHT22;13508;50.734;4.232;2024-02-21T04:24:33;9.10;99.90
25652;DHT22;13508;50.734;4.232;2024-02-21T04:27:40;9.20;99.90
25652;DHT22;13508;50.734;4.232;2024-02-21T04:30:43;9.20;99.90
25652;DHT22;13508;50.734;4.232;2024-02-21T04:33:48;9.20;99.90
25652;DHT22;13508;50.734;4.232;2024-02-21T04:36:51;9.20;99.90
25652;DHT22;13508;50.734;4.232;2024-02-21T04:39:57;9.30;99.90
25652;DHT22;13508;50.734;4.232;2024-02-21T04:43:03;9.20;99.90
25652;DHT22;13508;50.734;4.232;2024-02-21T04:46:06;9.20;99.90
25652;DHT22;13508;50.734;4.232;2024-02-21T04:49:10;9.30;99.90
25652;DHT22;13508;50.734;4.232;2024-02-21T04:52:13;9.20;99.90
25652;DHT22;13508;50.734;4.232;2024-02-21T04:55:17;9.20;99.90
25652;DHT22;13508;50.734;4.232;2024-02-21T04:58:21;9.30;99.90
25652;DHT22;13508;50.734;4.232;2024-02-21T05:01:24;9.20;99.90
25652;DHT22;13508;50.734;4.232;2024-02-21T05:04:27;9.20;99.90
25652;DHT22;13508;50.734;4.232;2024-02-21T05:07:30;9.20;99.90
25652;DHT22;13508;50.734;4.232;2024-02-21T05:10:34;9.10;99.90
25652;DHT22;13508;50.734;4.232;2024-02-21T05:13:37;9.10;99.90
25652;DHT22;13508;50.734;4.232;2024-02-21T05:16:41;9.20;99.90
25652;DHT22;13508;50.734;4.232;2024-02-21T05:19:47;9.10;99.90
25652;DHT22;13508;50.734;4.232;2024-02-21T05:22:51;9.10;99.90
25652;DHT22;13508;50.734;4.232;2024-02-21T05:25:56;9.10;99.90
25652;DHT22;13508;50.734;4.232;2024-02-21T05:29:00;9.10;99.90
25652;DHT22;13508;50.734;4.232;2024-02-21T05:32:03;9.20;99.90
25652;DHT22;13508;50.734;4.232;2024-02-21T05:35:09;9.20;99.90
25652;DHT22;13508;50.734;4.232;2024-02-21T05:38:13;9.20;99.90
25652;DHT22;13508;50.734;4.232;2024-02-21T05:41:18;9.20;99.90
25652;DHT22;13508;50.734;4.232;2024-02-21T05:44:24;9.10;99.90
25652;DHT22;13508;50.734;4.232;2024-02-21T05:47:29;9.10;99.90
25652;DHT22;13508;50.734;4.232;2024-02-21T05:50:32;9.20;99.90
25652;DHT22;13508;50.734;4.232;2024-02-21T05:53:36;9.20;99.90
25652;DHT22;13508;50.734;4.232;2024-02-21T05:56:46;9.00;99.90
25652;DHT22;13508;50.734;4.232;2024-02-21T05:59:50;9.00;99.90
25652;DHT22;13508;50.734;4.232;2024-02-21T06:02:53;9.10;99.90
25652;DHT22;13508;50.734;4.232;2024-02-21T06:05:56;9.10;99.90
25652;DHT22;13508;50.734;4.232;2024-02-21T06:08:59;9.20;99.90
25652;DHT22;13508;50.734;4.232;2024-02-21T06:12:05;9.10;99.90
25652;DHT22;13508;50.734;4.232;2024-02-21T06:15:09;9.20;99.90
25652;DHT22;13508;50.734;4.232;2024-02-21T06:18:12;9.20;99.90
25652;DHT22;13508;50.734;4.232;2024-02-21T06:21:15;9.10;99.90
25652;DHT22;13508;50.734;4.232;2024-02-21T06:24:21;9.20;99.90
25652;DHT22;13508;50.734;4.232;2024-02-21T06:27:27;9.10;99.90
25652;DHT22;13508;50.734;4.232;2024-02-21T06:30:30;9.20;99.90
25652;DHT22;13508;50.734;4.232;2024-02-21T06:33:34;9.10;99.90
25652;DHT22;13508;50.734;4.232;2024-02-21T06:36:39;9.30;99.90
25652;DHT22;13508;50.734;4.232;2024-02-21T06:39:43;9.20;99.90
25652;DHT22;13508;50.734;4.232;2024-02-21T06:42:49;9.10;99.90
25652;DHT22;13508;50.734;4.232;2024-02-21T06:45:53;9.10;99.90
25652;DHT22;13508;50.734;4.232;2024-02-21T06:49:00;9.00;99.90
25652;DHT22;13508;50.734;4.232;2024-02-21T06:52:04;8.90;99.90
25652;DHT22;13508;50.734;4.232;2024-02-21T06:55:08;8.90;99.90
25652;DHT22;13508;50.734;4.232;2024-02-21T06:58:13;8.90;99.90
25652;DHT22;13508;50.734;4.232;2024-02-21T07:01:18;9.00;99.90
25652;DHT22;13508;50.734;4.232;2024-02-21T07:04:21;8.90;99.90
25652;DHT22;13508;50.734;4.232;2024-02-21T07:07:25;9.00;99.90
25652;DHT22;13508;50.734;4.232;2024-02-21T07:10:29;8.90;99.90
25652;DHT22;13508;50.734;4.232;2024-02-21T07:13:33;8.80;99.90
25652;DHT22;13508;50.734;4.232;2024-02-21T07:16:36;8.90;99.90
25652;DHT22;13508;50.734;4.232;2024-02-21T07:19:40;8.80;99.90
25652;DHT22;13508;50.734;4.232;2024-02-21T07:22:42;8.80;99.90
25652;DHT22;13508;50.734;4.232;2024-02-21T07:25:46;8.80;99.90
25652;DHT22;13508;50.734;4.232;2024-02-21T07:28:50;8.90;99.90
25652;DHT22;13508;50.734;4.232;2024-02-21T07:31:53;9.00;99.90
25652;DHT22;13508;50.734;4.232;2024-02-21T07:35:00;8.90;99.90
25652;DHT22;13508;50.734;4.232;2024-02-21T07:38:04;8.90;99.90
25652;DHT22;13508;50.734;4.232;2024-02-21T07:41:08;9.00;99.90
25652;DHT22;13508;50.734;4.232;2024-02-21T07:44:11;9.20;99.90
25652;DHT22;13508;50.734;4.232;2024-02-21T07:47:15;9.20;99.90
25652;DHT22;13508;50.734;4.232;2024-02-21T07:50:18;9.20;99.90
25652;DHT22;13508;50.734;4.232;2024-02-21T07:53:22;9.30;99.90
25652;DHT22;13508;50.734;4.232;2024-02-21T07:56:27;9.20;99.90
25652;DHT22;13508;50.734;4.232;2024-02-21T07:59:32;9.10;99.90
25652;DHT22;13508;50.734;4.232;2024-02-21T08:02:35;9.10;99.90
25652;DHT22;13508;50.734;4.232;2024-02-21T08:05:39;9.00;99.90
25652;DHT22;13508;50.734;4.232;2024-02-21T08:08:42;8.90;99.90
25652;DHT22;13508;50.734;4.232;2024-02-21T08:11:50;8.90;99.90
25652;DHT22;13508;50.734;4.232;2024-02-21T08:14:54;9.00;99.90
25652;DHT22;13508;50.734;4.232;2024-02-21T08:17:57;9.10;99.90
25652;DHT22;13508;50.734;4.232;2024-02-21T08:21:04;9.10;99.90
25652;DHT22;13508;50.734;4.232;2024-02-21T08:24:08;9.20;99.90
25652;DHT22;13508;50.734;4.232;2024-02-21T08:27:12;9.10;99.90
25652;DHT22;13508;50.734;4.232;2024-02-21T08:30:15;9.10;99.90
25652;DHT22;13508;50.734;4.232;2024-02-21T08:33:19;9.20;99.90
25652;DHT22;13508;50.734;4.232;2024-02-21T08:36:23;9.40;99.90
25652;DHT22;13508;50.734;4.232;2024-02-21T08:39:26;9.40;99.90
25652;DHT22;13508;50.734;4.232;2024-02-21T08:42:31;9.30;99.90
25652;DHT22;13508;50.734;4.232;2024-02-21T08:45:35;9.40;99.90
25652;DHT22;13508;50.734;4.232;2024-02-21T08:48:40;9.30;99.90
25652;DHT22;13508;50.734;4.232;2024-02-21T08:51:44;9.20;99.90
25652;DHT22;13508;50.734;4.232;2024-02-21T08:54:51;9.40;99.90
25652;DHT22;13508;50.734;4.232;2024-02-21T08:57:56;9.50;99.90
25652;DHT22;13508;50.734;4.232;2024-02-21T09:01:00;9.60;99.90
25652;DHT22;13508;50.734;4.232;2024-02-21T09:04:03;9.60;99.90
25652;DHT22;13508;50.734;4.232;2024-02-21T09:07:07;9.60;99.90
25652;DHT22;13508;50.734;4.232;2024-02-21T09:10:11;9.50;99.90
25652;DHT22;13508;50.734;4.232;2024-02-21T09:13:16;9.60;99.90
25652;DHT22;13508;50.734;4.232;2024-02-21T09:16:19;9.60;99.90
25652;DHT22;13508;50.734;4.232;2024-02-21T09:19:22;9.70;99.90
25652;DHT22;13508;50.734;4.232;2024-02-21T09:22:26;9.70;99.90
25652;DHT22;13508;50.734;4.232;2024-02-21T09:25:29;10.00;99.90
25652;DHT22;13508;50.734;4.232;2024-02-21T09:28:33;10.00;99.90
25652;DHT22;13508;50.734;4.232;2024-02-21T09:31:38;10.10;99.90
25652;DHT22;13508;50.734;4.232;2024-02-21T09:34:41;10.10;99.90
25652;DHT22;13508;50.734;4.232;2024-02-21T09:37:45;10.00;99.90
25652;DHT22;13508;50.734;4.232;2024-02-21T09:41:15;10.00;99.90
25652;DHT22;13508;50.734;4.232;2024-02-21T09:44:21;10.10;99.90
25652;DHT22;13508;50.734;4.232;2024-02-21T09:47:58;9.80;99.90
25652;DHT22;13508;50.734;4.232;2024-02-21T09:50:57;9.80;99.90
25652;DHT22;13508;50.734;4.232;2024-02-21T09:54:03;9.80;99.90
25652;DHT22;13508;50.734;4.232;2024-02-21T09:57:08;10.00;99.90
25652;DHT22;13508;50.734;4.232;2024-02-21T10:00:15;10.00;99.90
25652;DHT22;13508;50.734;4.232;2024-02-21T10:03:24;9.90;99.90
25652;DHT22;13508;50.734;4.232;2024-02-21T10:06:28;9.90;99.90
25652;DHT22;13508;50.734;4.232;2024-02-21T10:09:31;10.10;99.90
25652;DHT22;13508;50.734;4.232;2024-02-21T10:12:36;10.00;99.90
25652;DHT22;13508;50.734;4.232;2024-02-21T10:15:39;10.30;99.90
25652;DHT22;13508;50.734;4.232;2024-02-21T10:18:43;10.30;99.90
25652;DHT22;13508;50.734;4.232;2024-02-21T10:22:05;10.30;99.90
25652;DHT22;13508;50.734;4.232;2024-02-21T10:25:14;10.40;99.90
25652;DHT22;13508;50.734;4.232;2024-02-21T10:28:18;10.30;99.90
25652;DHT22;13508;50.734;4.232;2024-02-21T10:31:29;10.40;99.90
25652;DHT22;13508;50.734;4.232;2024-02-21T10:34:33;10.40;99.90
25652;DHT22;13508;50.734;4.232;2024-02-21T10:37:36;10.30;99.90
25652;DHT22;13508;50.734;4.232;2024-02-21T10:40:39;10.00;99.90
25652;DHT22;13508;50.734;4.232;2024-02-21T10:43:46;10.10;99.90
25652;DHT22;13508;50.734;4.232;2024-02-21T10:46:50;10.20;99.90
25652;DHT22;13508;50.734;4.232;2024-02-21T10:50:04;10.40;99.90
25652;DHT22;13508;50.734;4.232;2024-02-21T10:56:29;10.40;99.90
25652;DHT22;13508;50.734;4.232;2024-02-21T10:59:33;10.60;99.90
25652;DHT22;13508;50.734;4.232;2024-02-21T11:02:37;10.40;99.90
25652;DHT22;13508;50.734;4.232;2024-02-21T11:05:41;10.20;99.90
25652;DHT22;13508;50.734;4.232;2024-02-21T11:08:46;10.10;99.90
25652;DHT22;13508;50.734;4.232;2024-02-21T11:11:50;10.10;99.90
25652;DHT22;13508;50.734;4.232;2024-02-21T11:15:04;10.20;99.90
25652;DHT22;13508;50.734;4.232;2024-02-21T11:18:08;10.40;99.90
25652;DHT22;13508;50.734;4.232;2024-02-21T11:21:12;10.30;99.90
25652;DHT22;13508;50.734;4.232;2024-02-21T11:24:28;10.40;99.90
25652;DHT22;13508;50.734;4.232;2024-02-21T11:27:33;10.50;99.90
25652;DHT22;13508;50.734;4.232;2024-02-21T11:30:37;10.50;99.90
25652;DHT22;13508;50.734;4.232;2024-02-21T11:33:43;10.50;99.90
25652;DHT22;13508;50.734;4.232;2024-02-21T11:36:51;10.50;99.90
25652;DHT22;13508;50.734;4.232;2024-02-21T11:39:57;10.50;99.90
25652;DHT22;13508;50.734;4.232;2024-02-21T11:43:01;10.60;99.90
25652;DHT22;13508;50.734;4.232;2024-02-21T11:46:05;10.40;99.90
25652;DHT22;13508;50.734;4.232;2024-02-21T11:49:12;10.30;99.90
25652;DHT22;13508;50.734;4.232;2024-02-21T11:52:16;10.20;99.90
25652;DHT22;13508;50.734;4.232;2024-02-21T11:55:22;10.40;99.90
25652;DHT22;13508;50.734;4.232;2024-02-21T11:58:28;10.40;99.90
25652;DHT22;13508;50.734;4.232;2024-02-21T12:01:32;10.40;99.90
25652;DHT22;13508;50.734;4.232;2024-02-21T12:04:37;10.60;99.90
25652;DHT22;13508;50.734;4.232;2024-02-21T12:07:41;10.50;99.90
25652;DHT22;13508;50.734;4.232;2024-02-21T12:10:47;10.50;99.90
25652;DHT22;13508;50.734;4.232;2024-02-21T12:17:07;10.70;99.90
25652;DHT22;13508;50.734;4.232;2024-02-21T12:20:14;10.90;99.90
25652;DHT22;13508;50.734;4.232;2024-02-21T12:23:19;10.90;99.90
25652;DHT22;13508;50.734;4.232;2024-02-21T12:26:23;11.20;99.90
25652;DHT22;13508;50.734;4.232;2024-02-21T12:29:26;11.00;99.90
25652;DHT22;13508;50.734;4.232;2024-02-21T12:32:30;11.00;99.90
25652;DHT22;13508;50.734;4.232;2024-02-21T12:35:34;11.00;99.90
25652;DHT22;13508;50.734;4.232;2024-02-21T12:38:37;11.20;99.90
25652;DHT22;13508;50.734;4.232;2024-02-21T12:41:42;10.90;99.90
25652;DHT22;13508;50.734;4.232;2024-02-21T12:44:47;11.00;99.90
25652;DHT22;13508;50.734;4.232;2024-02-21T12:47:50;10.90;99.90
25652;DHT22;13508;50.734;4.232;2024-02-21T12:50:56;10.80;99.90
25652;DHT22;13508;50.734;4.232;2024-02-21T12:54:00;11.00;99.90
25652;DHT22;13508;50.734;4.232;2024-02-21T12:57:06;11.00;99.90
25652;DHT22;13508;50.734;4.232;2024-02-21T13:00:10;11.10;99.90
25652;DHT22;13508;50.734;4.232;2024-02-21T13:03:14;11.00;99.90
25652;DHT22;13508;50.734;4.232;2024-02-21T13:06:17;11.20;99.90
25652;DHT22;13508;50.734;4.232;2024-02-21T13:09:21;11.30;99.90
25652;DHT22;13508;50.734;4.232;2024-02-21T13:12:25;11.20;99.90
25652;DHT22;13508;50.734;4.232;2024-02-21T13:15:31;11.00;99.90
25652;DHT22;13508;50.734;4.232;2024-02-21T13:18:37;11.00;99.90
25652;DHT22;13508;50.734;4.232;2024-02-21T13:21:46;10.80;99.90
25652;DHT22;13508;50.734;4.232;2024-02-21T13:24:51;11.00;99.90
25652;DHT22;13508;50.734;4.232;2024-02-21T13:27:54;11.20;99.90
25652;DHT22;13508;50.734;4.232;2024-02-21T13:30:57;10.90;99.90
25652;DHT22;13508;50.734;4.232;2024-02-21T13:34:01;10.70;99.90
25652;DHT22;13508;50.734;4.232;2024-02-21T13:37:05;10.70;99.90
25652;DHT22;13508;50.734;4.232;2024-02-21T13:40:10;10.70;99.90
25652;DHT22;13508;50.734;4.232;2024-02-21T13:43:13;10.80;99.90
25652;DHT22;13508;50.734;4.232;2024-02-21T13:46:18;10.80;99.90
25652;DHT22;13508;50.734;4.232;2024-02-21T13:49:22;10.80;99.90
25652;DHT22;13508;50.734;4.232;2024-02-21T13:52:25;10.50;99.90
25652;DHT22;13508;50.734;4.232;2024-02-21T13:55:29;10.50;99.90
25652;DHT22;13508;50.734;4.232;2024-02-21T13:58:35;10.50;99.90
25652;DHT22;13508;50.734;4.232;2024-02-21T14:01:39;10.40;99.90
25652;DHT22;13508;50.734;4.232;2024-02-21T14:04:42;10.60;99.90
25652;DHT22;13508;50.734;4.232;2024-02-21T14:07:46;10.40;99.90
25652;DHT22;13508;50.734;4.232;2024-02-21T14:10:51;10.50;99.90
25652;DHT22;13508;50.734;4.232;2024-02-21T14:13:57;10.40;99.90
25652;DHT22;13508;50.734;4.232;2024-02-21T14:17:02;10.50;99.90
25652;DHT22;13508;50.734;4.232;2024-02-21T14:20:07;10.50;99.90
25652;DHT22;13508;50.734;4.232;2024-02-21T14:23:11;10.30;99.90
25652;DHT22;13508;50.734;4.232;2024-02-21T14:26:16;10.30;99.90
25652;DHT22;13508;50.734;4.232;2024-02-21T14:29:19;10.40;99.90
25652;DHT22;13508;50.734;4.232;2024-02-21T14:32:22;10.30;99.90
25652;DHT22;13508;50.734;4.232;2024-02-21T14:35:28;10.20;99.90
25652;DHT22;13508;50.734;4.232;2024-02-21T14:38:32;10.20;99.90
25652;DHT22;13508;50.734;4.232;2024-02-21T14:41:38;10.10;99.90
25652;DHT22;13508;50.734;4.232;2024-02-21T14:44:42;9.80;99.90
25652;DHT22;13508;50.734;4.232;2024-02-21T14:47:45;9.90;99.90
25652;DHT22;13508;50.734;4.232;2024-02-21T14:50:51;9.80;99.90
25652;DHT22;13508;50.734;4.232;2024-02-21T14:53:57;9.70;99.90
25652;DHT22;13508;50.734;4.232;2024-02-21T14:57:01;9.70;99.90
25652;DHT22;13508;50.734;4.232;2024-02-21T15:00:07;9.70;99.90
25652;DHT22;13508;50.734;4.232;2024-02-21T15:03:16;9.70;99.90
25652;DHT22;13508;50.734;4.232;2024-02-21T15:06:22;9.70;99.90
25652;DHT22;13508;50.734;4.232;2024-02-21T15:09:26;9.70;99.90
25652;DHT22;13508;50.734;4.232;2024-02-21T15:12:31;9.70;99.90
25652;DHT22;13508;50.734;4.232;2024-02-21T15:15:34;9.70;99.90
25652;DHT22;13508;50.734;4.232;2024-02-21T15:18:38;9.70;99.90
25652;DHT22;13508;50.734;4.232;2024-02-21T15:21:41;9.70;99.90
25652;DHT22;13508;50.734;4.232;2024-02-21T15:24:45;9.60;99.90
25652;DHT22;13508;50.734;4.232;2024-02-21T15:27:51;9.60;99.90
25652;DHT22;13508;50.734;4.232;2024-02-21T15:30:55;9.50;99.90
25652;DHT22;13508;50.734;4.232;2024-02-21T15:34:00;9.50;99.90
25652;DHT22;13508;50.734;4.232;2024-02-21T15:37:04;9.50;99.90
25652;DHT22;13508;50.734;4.232;2024-02-21T15:40:08;9.60;99.90
25652;DHT22;13508;50.734;4.232;2024-02-21T15:43:14;9.60;99.90
25652;DHT22;13508;50.734;4.232;2024-02-21T15:46:22;9.50;99.90
25652;DHT22;13508;50.734;4.232;2024-02-21T15:49:28;9.50;99.90
25652;DHT22;13508;50.734;4.232;2024-02-21T15:52:32;9.50;99.90
25652;DHT22;13508;50.734;4.232;2024-02-21T15:55:35;9.50;99.90
25652;DHT22;13508;50.734;4.232;2024-02-21T15:58:39;9.50;99.90
25652;DHT22;13508;50.734;4.232;2024-02-21T16:01:42;9.40;99.90
25652;DHT22;13508;50.734;4.232;2024-02-21T16:04:46;9.30;99.90
25652;DHT22;13508;50.734;4.232;2024-02-21T16:07:52;9.40;99.90
25652;DHT22;13508;50.734;4.232;2024-02-21T16:10:55;9.40;99.90
25652;DHT22;13508;50.734;4.232;2024-02-21T16:14:00;9.40;99.90
25652;DHT22;13508;50.734;4.232;2024-02-21T16:17:04;9.40;99.90
25652;DHT22;13508;50.734;4.232;2024-02-21T16:20:11;9.40;99.90
25652;DHT22;13508;50.734;4.232;2024-02-21T16:23:18;9.40;99.90
25652;DHT22;13508;50.734;4.232;2024-02-21T16:26:21;9.40;99.90
25652;DHT22;13508;50.734;4.232;2024-02-21T16:29:25;9.50;99.90
25652;DHT22;13508;50.734;4.232;2024-02-21T16:32:28;9.50;99.90
25652;DHT22;13508;50.734;4.232;2024-02-21T16:35:32;9.50;99.90
25652;DHT22;13508;50.734;4.232;2024-02-21T16:38:38;9.40;99.90
25652;DHT22;13508;50.734;4.232;2024-02-21T16:41:44;9.40;99.90
25652;DHT22;13508;50.734;4.232;2024-02-21T16:44:48;9.50;99.90
25652;DHT22;13508;50.734;4.232;2024-02-21T16:47:51;9.50;99.90
25652;DHT22;13508;50.734;4.232;2024-02-21T16:50:57;9.50;99.90
25652;DHT22;13508;50.734;4.232;2024-02-21T16:54:00;9.50;99.90
25652;DHT22;13508;50.734;4.232;2024-02-21T16:57:08;9.50;99.90
25652;DHT22;13508;50.734;4.232;2024-02-21T17:00:13;9.50;99.90
25652;DHT22;13508;50.734;4.232;2024-02-21T17:03:16;9.50;99.90
25652;DHT22;13508;50.734;4.232;2024-02-21T17:06:22;9.40;99.90
25652;DHT22;13508;50.734;4.232;2024-02-21T17:09:28;9.40;99.90
25652;DHT22;13508;50.734;4.232;2024-02-21T17:12:32;9.40;99.90
25652;DHT22;13508;50.734;4.232;2024-02-21T17:15:39;9.30;99.90
25652;DHT22;13508;50.734;4.232;2024-02-21T17:18:42;9.40;99.90
25652;DHT22;13508;50.734;4.232;2024-02-21T17:21:46;9.40;99.90
25652;DHT22;13508;50.734;4.232;2024-02-21T17:24:51;9.30;99.90
25652;DHT22;13508;50.734;4.232;2024-02-21T17:27:55;9.30;99.90
25652;DHT22;13508;50.734;4.232;2024-02-21T17:30:59;9.40;99.90
25652;DHT22;13508;50.734;4.232;2024-02-21T17:34:02;9.50;99.90
25652;DHT22;13508;50.734;4.232;2024-02-21T18:39:15;9.40;99.90
25652;DHT22;13508;50.734;4.232;2024-02-21T18:43:28;9.50;99.90
25652;DHT22;13508;50.734;4.232;2024-02-21T18:52:00;9.50;99.90
25652;DHT22;13508;50.734;4.232;2024-02-21T19:00:30;9.50;99.90
25652;DHT22;13508;50.734;4.232;2024-02-21T19:13:46;9.50;99.90
25652;DHT22;13508;50.734;4.232;2024-02-21T19:18:20;9.50;99.90
25652;DHT22;13508;50.734;4.232;2024-02-21T19:22:37;9.50;99.90
25652;DHT22;13508;50.734;4.232;2024-02-21T19:35:39;9.70;99.90
25652;DHT22;13508;50.734;4.232;2024-02-21T19:44:04;9.60;99.90
25652;DHT22;13508;50.734;4.232;2024-02-21T19:52:01;9.60;99.90
25652;DHT22;13508;50.734;4.232;2024-02-21T19:56:08;9.70;99.90
25652;DHT22;13508;50.734;4.232;2024-02-21T20:00:06;9.60;99.90
25652;DHT22;13508;50.734;4.232;2024-02-21T20:04:27;9.60;99.90
25652;DHT22;13508;50.734;4.232;2024-02-21T20:25:45;9.60;99.90
25652;DHT22;13508;50.734;4.232;2024-02-21T20:38:35;9.50;99.90
25652;DHT22;13508;50.734;4.232;2024-02-21T20:43:04;9.80;99.90
25652;DHT22;13508;50.734;4.232;2024-02-21T21:08:21;9.80;99.90
25652;DHT22;13508;50.734;4.232;2024-02-21T21:21:01;9.90;99.90
25652;DHT22;13508;50.734;4.232;2024-02-21T21:25:06;9.90;99.90
25652;DHT22;13508;50.734;4.232;2024-02-21T21:32:37;10.00;99.90
25652;DHT22;13508;50.734;4.232;2024-02-21T21:41:04;10.20;99.90
25652;DHT22;13508;50.734;4.232;2024-02-21T21:44:34;10.00;99.90
25652;DHT22;13508;50.734;4.232;2024-02-21T21:47:37;10.10;99.90
25652;DHT22;13508;50.734;4.232;2024-02-21T21:50:40;10.00;99.90
25652;DHT22;13508;50.734;4.232;2024-02-21T21:53:44;10.10;99.90
25652;DHT22;13508;50.734;4.232;2024-02-21T21:56:49;10.10;99.90
25652;DHT22;13508;50.734;4.232;2024-02-21T21:59:52;10.10;99.90
25652;DHT22;13508;50.734;4.232;2024-02-21T22:02:55;10.10;99.90
25652;DHT22;13508;50.734;4.232;2024-02-21T22:05:58;10.10;99.90
25652;DHT22;13508;50.734;4.232;2024-02-21T22:09:01;10.20;99.90
25652;DHT22;13508;50.734;4.232;2024-02-21T22:12:06;10.30;99.90
25652;DHT22;13508;50.734;4.232;2024-02-21T22:15:09;10.30;99.90
25652;DHT22;13508;50.734;4.232;2024-02-21T22:18:12;10.20;99.90
25652;DHT22;13508;50.734;4.232;2024-02-21T22:21:16;10.30;99.90
25652;DHT22;13508;50.734;4.232;2024-02-21T22:24:20;10.30;99.90
25652;DHT22;13508;50.734;4.232;2024-02-21T22:27:26;10.30;99.90
25652;DHT22;13508;50.734;4.232;2024-02-21T22:30:30;10.30;99.90
25652;DHT22;13508;50.734;4.232;2024-02-21T22:33:33;10.30;99.90
25652;DHT22;13508;50.734;4.232;2024-02-21T22:36:37;10.30;99.90
25652;DHT22;13508;50.734;4.232;2024-02-21T22:39:43;10.40;99.90
25652;DHT22;13508;50.734;4.232;2024-02-21T22:42:46;10.40;99.90
25652;DHT22;13508;50.734;4.232;2024-02-21T22:45:49;10.40;99.90
25652;DHT22;13508;50.734;4.232;2024-02-21T22:48:53;10.50;99.90